Startpagina
METAR-TAF:

METAR-TAF

Vliegvelden :

Luchthaven Franjo Tuđman Zagreb

Zagreb, Kroatië

breedte: 45-44N, lengte: 016-04E, hoogte: 106 m

Actueel weer

Dit bericht is 34 minuten geleden gemaakt, om 10:30 UTC
Wind 2 kt uit variabele richting
Temperatuur 26°C
Vochtigheid 51%
Druk 1020 hPa
Zicht 10 km of meer
geen wolken onder 1500 m en geen cumulonimbus

METAR: LDZA 191030Z VRB02KT CAVOK 26/15 Q1020 NOSIG

Tijdstip: 13:04 (11:04 UTC)

Verwachting

Dit bericht is 5 uur en het 39 minuten geleden gemaakt, om 05:25 UTC
Verwachting geldig van 19 om 06 UTC tot 20 om 06 UTC
Wind 2 kt uit variabele richting
Zicht 10 km of meer
geen wolken onder 1500 m en geen cumulonimbus
Kans 30% :
Tijdelijke
van 19 om 18 UTC tot 19 om 22 UTC
Wind 7 kt uit het noordoosten

TAF: LDZA 190525Z 1906/2006 VRB02KT CAVOK TX28/1912Z TN12/2004Z PROB30 TEMPO 1918/1922 05007KT

Waarnemingen en weersverwachtingen van meer dan 4000 vliegvelden (METAR en TAF).

De beschikbare stations zijn de gele en rode punten op de kaart.

Ga met uw muis naar het station om de naam te zien.

Klik dan om waarnemingen en weersverwachtingen te zien.

kaart wijzigen: klik op de groene knoppen met een zwart kruis om in te zoomen, op de groene knop met een streepje om uit te zoomen of op de groene pijlen voor aangrenzende kaarten.


METAR-TAF: